Data for 09/01/2015

Time Sea-Level Adjusted Pressure Absolute Pressure Temperature Relative Humidity Dew Point   
(mb) (inHg) (mb) (inHg) (C) (F) (%) (C) (F)
00:05 1016 30 845 24.95 14.8 58.7 37 0.3 32.5
00:10 1016 30 845 24.95 14.4 57.9 38 0.2 32.3
00:15 1016 30 845 24.95 14.3 57.7 38 0.2 32.3
00:20 1016 30 845 24.95 14.2 57.6 38 0.1 32.1
00:25 1016 30 845 24.95 14.3 57.7 37 0 32
00:30 1016 30 845 24.95 14 57.2 39 0.2 32.4
00:35 1016 30 845 24.95 14.2 57.6 35 -1 30.1
00:40 1016 30 845 24.95 14.8 58.6 35 -0.3 31.4
00:45 1016 30 845 24.95 14.8 58.6 35 -0.5 31.1
00:50 1016 30 845 24.95 14.5 58.1 37 -0 32
00:55 1016 30 845 24.95 14 57.2 38 -0.1 31.8
01:00 1016 30 845 24.95 13.9 57 39 0.3 32.5
01:05 1016 30 845 24.95 13.8 56.8 38 -0.2 31.6
01:10 1016 30 845 24.95 13.8 56.8 37 -0.4 31.3
01:15 1016 30 845 24.95 13.9 57 37 -0.3 31.4
01:20 1016 30 845 24.95 13.7 56.7 39 -0.1 31.9
01:25 1016 30 845 24.95 13.4 56.1 40 0 32.1
01:30 1016 30 845 24.95 13.1 55.7 41 0.2 32.4
01:35 1016 30 845 24.95 12.9 55.2 40 -0.2 31.7
01:40 1016 30 845 24.95 12.9 55.3 43 0.6 33.2
01:45 1016 30 845 24.95 12.7 54.8 42 0.2 32.4
01:50 1016 30 845 24.95 12.8 55.1 43 0.6 33.2
01:55 1016 30 845 24.95 12.7 54.8 42 0.3 32.5
02:00 1016 30 845 24.95 12.6 54.6 45 1.1 34
02:05 1016 30 845 24.95 12.1 53.7 47 1.1 33.9
02:10 1016 30 845 24.95 11.5 52.7 48 1 33.8
02:15 1016 30 845 24.95 11.4 52.5 50 1.3 34.3
02:20 1016 30 845 24.95 10.8 51.4 54 1.8 35.3
02:25 1016 30 846 24.98 10.1 50.2 55 1.4 34.5
02:30 1016 30 846 24.98 10.3 50.5 54 1.5 34.7
02:35 1016 30 846 24.98 10.2 50.3 54 1.2 34.2
02:40 1017 30.03 846 24.98 10.5 50.9 53 1.3 34.3
02:45 1017 30.03 846 24.98 10.8 51.4 50 0.9 33.6
02:50 1016 30 846 24.98 11.1 52 50 1.2 34.2
02:55 1016 30 846 24.98 11 51.7 49 0.7 33.3
03:00 1016 30 846 24.98 10.8 51.5 51 1.2 34.1
03:05 1016 30 846 24.98 10.1 50.2 55 1.5 34.7
03:10 1016 30 846 24.98 9.7 49.4 58 1.8 35.2
03:15 1016 30 846 24.98 9.3 48.8 59 1.7 35
03:20 1016 30 845 24.95 9.2 48.5 58 1.4 34.5
03:25 1016 30 845 24.95 9.4 48.8 55 0.7 33.3
03:30 1016 30 845 24.95 10.2 50.3 50 0.2 32.3
03:35 1016 30 845 24.95 11 51.8 47 0.1 32.1
03:40 1016 30 846 24.98 11.2 52.1 49 0.9 33.6
03:45 1016 30 846 24.98 11 51.7 51 1.2 34.1
03:50 1016 30 846 24.98 10.3 50.6 52 1 33.8
03:55 1016 30 846 24.98 9.9 49.9 54 1.2 34.2
04:00 1016 30 846 24.98 9.8 49.6 54 1.1 33.9
04:05 1016 30 846 24.98 9.7 49.5 55 1.1 33.9
04:10 1016 30 846 24.98 9.7 49.5 56 1.3 34.4
04:15 1016 30 846 24.98 9.5 49 55 0.9 33.6
04:20 1016 30 846 24.98 9.7 49.4 53 0.6 33.1
04:25 1017 30.03 846 24.98 10.2 50.3 51 0.6 33.1
04:30 1017 30.03 846 24.98 10.5 50.9 49 0.4 32.7
04:35 1017 30.03 846 24.98 10.4 50.8 51 0.8 33.5
04:40 1017 30.03 846 24.98 10.2 50.4 50 0.3 32.6
04:45 1017 30.03 846 24.98 10.3 50.5 53 1.1 34
04:50 1017 30.03 846 24.98 9.5 49 56 1.1 34
04:55 1017 30.03 846 24.98 9.3 48.8 54 0.5 32.9
05:00 1017 30.03 846 24.98 10 49.9 49 -0.2 31.7
05:05 1017 30.03 846 24.98 10.4 50.8 49 0.1 32.2
05:10 1017 30.03 846 24.98 10.6 51.2 48 0.1 32.2
05:15 1017 30.03 846 24.98 10.8 51.4 48 0.3 32.5
05:20 1017 30.03 846 24.98 10.4 50.8 49 0.3 32.5
05:25 1017 30.03 846 24.98 10.4 50.7 50 0.4 32.7
05:30 1017 30.03 846 24.98 10.1 50.2 51 0.4 32.6
05:35 1017 30.03 846 24.98 9.8 49.6 52 0.5 32.9
05:40 1017 30.03 846 24.98 9.8 49.7 51 0.3 32.6
05:45 1017 30.03 846 24.98 9.8 49.7 51 0.2 32.3
05:50 1017 30.03 846 24.98 9.9 49.8 51 0.4 32.6
05:55 1017 30.03 846 24.98 9.8 49.6 51 0.3 32.5
06:00 1017 30.03 846 24.98 9.7 49.4 52 0.2 32.4
06:05 1017 30.03 846 24.98 10 50.1 49 -0 31.9
06:10 1017 30.03 846 24.98 10.1 50.1 51 0.5 32.9
06:15 1017 30.03 846 24.98 9.8 49.7 52 0.5 32.9
06:20 1017 30.03 846 24.98 9.9 49.9 51 0.3 32.5
06:25 1017 30.03 846 24.98 10.1 50.2 50 0.1 32.3
06:30 1017 30.03 846 24.98 10.5 51 47 -0.1 31.7
06:35 1017 30.03 846 24.98 11.2 52.1 47 0.3 32.5
06:40 1017 30.03 846 24.98 11.4 52.6 46 0.1 32.3
06:45 1017 30.03 846 24.98 11.6 52.8 45 0.1 32.1
06:50 1017 30.03 846 24.98 12.1 53.8 43 -0.2 31.7
06:55 1017 30.03 846 24.98 12.6 54.6 42 0.1 32.2
07:00 1017 30.03 846 24.98 12.9 55.2 43 0.6 33.1
07:05 1017 30.03 846 24.98 12.7 54.9 46 1.6 34.8
07:10 1017 30.03 847 25.01 12.6 54.6 47 1.7 35
07:15 1017 30.03 847 25.01 12.8 55 44 0.8 33.4
07:20 1017 30.03 847 25.01 13 55.3 45 1.3 34.3
07:25 1017 30.03 847 25.01 13.1 55.5 43 0.9 33.6
07:30 1017 30.03 847 25.01 13.1 55.6 45 1.4 34.5
07:35 1017 30.03 847 25.01 13.4 56.2 45 1.7 35
07:40 1017 30.03 847 25.01 14.3 57.7 41 1.3 34.3
07:45 1017 30.03 847 25.01 14.6 58.2 41 1.4 34.6
07:50 1017 30.03 847 25.01 15.2 59.3 39 1.3 34.3
07:55 1017 30.03 847 25.01 15.9 60.5 36 0.8 33.4
08:00 1017 30.03 847 25.01 16.3 61.4 36 1.2 34.1
08:05 1017 30.03 847 25.01 17 62.5 33 0.8 33.4
08:10 1017 30.03 847 25.01 17.4 63.3 31 0 32.1
08:15 1017 30.03 847 25.01 17.4 63.3 34 1.3 34.3
08:20 1017 30.03 847 25.01 17.5 63.6 32 0.9 33.6
08:25 1017 30.03 847 25.01 17.8 64 32 0.8 33.5
08:30 1017 30.03 847 25.01 17.6 63.6 32 1 33.8
08:35 1017 30.03 847 25.01 17.9 64.2 31 0.6 33
08:40 1017 30.03 847 25.01 18.5 65.3 30 0.7 33.3
08:45 1017 30.03 847 25.01 18.5 65.3 29 0.5 32.8
08:50 1017 30.03 847 25.01 18.1 64.6 29 0.1 32.1
08:55 1017 30.03 847 25.01 18.9 65.9 29 0.5 32.8
09:00 1017 30.03 847 25.01 19.6 67.3 27 0.3 32.5
09:05 1017 30.03 846 24.98 20.1 68.3 27 0.5 32.9
09:10 1017 30.03 846 24.98 20.3 68.6 27 0.8 33.5
09:15 1017 30.03 846 24.98 20.6 69.2 26 0.4 32.8
09:20 1017 30.03 846 24.98 20.8 69.5 26 1 33.8
09:25 1017 30.03 846 24.98 20.5 68.9 27 1 33.7
09:30 1017 30.03 846 24.98 20.8 69.4 26 0.8 33.4
09:35 1017 30.03 846 24.98 21.1 70 26 1 33.8
09:40 1017 30.03 846 24.98 21.8 71.2 23 0.1 32.2
09:45 1017 30.03 846 24.98 22.1 71.9 23 0.2 32.3
09:50 1017 30.03 846 24.98 21.3 70.3 26 1 33.9
09:55 1017 30.03 846 24.98 20.9 69.7 26 0.6 33.1
10:00 1017 30.03 846 24.98 20.8 69.4 26 0.9 33.6
10:05 1017 30.03 846 24.98 21.2 70.1 25 0.8 33.4
10:10 1017 30.03 846 24.98 21.7 71.1 23 -0.2 31.7
10:15 1017 30.03 846 24.98 21.7 71 24 0.5 32.9
10:20 1017 30.03 846 24.98 21.5 70.6 24 0.3 32.6
10:25 1017 30.03 846 24.98 22.3 72.2 24 0.8 33.4
10:30 1017 30.03 846 24.98 23 73.4 23 1 33.7
10:35 1017 30.03 846 24.98 23.2 73.7 23 1 33.8
10:40 1017 30.03 846 24.98 22.8 73 24 1.2 34.1
10:45 1017 30.03 846 24.98 21.9 71.4 25 1.3 34.4
10:50 1017 30.03 846 24.98 22.6 72.8 23 0.4 32.8
10:55 1017 30.03 846 24.98 23.7 74.6 21 0.2 32.4
11:00 1017 30.03 846 24.98 24.1 75.4 21 0.9 33.5
11:05 1017 30.03 846 24.98 24.4 75.9 20 -0.1 31.8
11:10 1017 30.03 846 24.98 23.7 74.7 20 -0.1 31.9
11:15 1016 30 846 24.98 24.2 75.6 20 -0.1 31.8
11:20 1016 30 846 24.98 24.8 76.6 19 0.1 32.2
11:25 1016 30 846 24.98 24.7 76.4 19 -0.4 31.3
11:30 1016 30 845 24.95 24.8 76.7 20 0.3 32.6
11:35 1016 30 845 24.95 25 76.9 19 -0.1 31.8
11:40 1016 30 845 24.95 25 77.1 19 0.1 32.2
11:45 1016 30 845 24.95 25.2 77.4 18 -0.2 31.7
11:50 1016 30 845 24.95 24.9 76.9 18 -0.5 31
11:55 1016 30 845 24.95 25.1 77.2 19 -0.1 31.9
12:00 1016 30 845 24.95 25.1 77.2 18 -0.7 30.8
12:05 1016 30 845 24.95 25.1 77.2 18 -0.8 30.6
12:10 1016 30 845 24.95 25.8 78.5 15 -2.1 28.2
12:15 1016 30 845 24.95 26.1 78.9 16 -1.7 28.9
12:20 1016 30 845 24.95 26.5 79.6 15 -1.9 28.6
12:25 1016 30 845 24.95 27.2 80.9 15 -1.3 29.7
12:30 1016 30 845 24.95 27 80.5 15 -1.5 29.2
12:35 1016 30 845 24.95 27.4 81.4 15 -1.2 29.8
12:40 1016 30 845 24.95 27.7 81.9 15 -1.3 29.6
12:45 1015 29.97 845 24.95 27.2 81 15 -1.5 29.3
12:50 1015 29.97 845 24.95 26.7 80.1 15 -1.9 28.6
12:55 1015 29.97 845 24.95 26.9 80.4 14 -2.6 27.4
13:00 1015 29.97 844 24.92 27.4 81.3 14 -2.5 27.6
13:05 1015 29.97 844 24.92 27.2 80.9 15 -1.4 29.4
13:10 1015 29.97 844 24.92 27 80.5 14 -2.6 27.4
13:15 1015 29.97 844 24.92 26 78.8 16 -1.8 28.7
13:20 1015 29.97 844 24.92 26.8 80.3 14 -2.7 27.1
13:25 1015 29.97 844 24.92 26.9 80.5 15 -2 28.4
13:30 1015 29.97 844 24.92 27.4 81.4 14 -2 28.3
13:35 1015 29.97 844 24.92 27.4 81.2 14 -2 28.4
13:40 1015 29.97 844 24.92 27.8 82 14 -1.9 28.5
13:45 1015 29.97 844 24.92 26.9 80.5 15 -2 28.4
13:50 1015 29.97 844 24.92 27.2 80.9 14 -1.9 28.5
13:55 1015 29.97 844 24.92 28.2 82.7 14 -1.4 29.5
14:00 1015 29.97 844 24.92 27.6 81.7 14 -1.6 29.2
14:05 1015 29.97 844 24.92 27.9 82.1 14 -2.1 28.3
14:10 1015 29.97 844 24.92 27 80.7 15 -1.7 28.9
14:15 1015 29.97 844 24.92 27.2 81 14 -2.2 28
14:20 1015 29.97 844 24.92 27.4 81.4 14 -2.1 28.2
14:25 1014 29.94 844 24.92 27.1 80.9 14 -2.3 27.9
14:30 1014 29.94 844 24.92 26.9 80.4 15 -2 28.4
14:35 1014 29.94 844 24.92 27.4 81.3 14 -2.2 28.1
14:40 1014 29.94 844 24.92 27.8 82 14 -2 28.4
14:45 1014 29.94 843 24.89 27.9 82.2 13 -2.3 27.8
14:50 1014 29.94 843 24.89 27.6 81.6 14 -2.3 27.9
14:55 1014 29.94 843 24.89 27.4 81.4 14 -2.2 28
15:00 1014 29.94 843 24.89 27.5 81.4 14 -2.2 28.1
15:05 1014 29.94 843 24.89 27.6 81.6 13 -2.8 27
15:10 1014 29.94 843 24.89 27 80.6 14 -2.9 26.8
15:15 1014 29.94 843 24.89 26.9 80.4 14 -2.4 27.6
15:20 1014 29.94 843 24.89 27.2 81 14 -2.6 27.3
15:25 1014 29.94 843 24.89 27.5 81.4 13 -2.8 27
15:30 1014 29.94 843 24.89 27.2 81 13 -3.2 26.2
15:35 1014 29.94 843 24.89 28 82.4 11 -4.4 24
15:40 1014 29.94 843 24.89 28.6 83.5 12 -2.9 26.7
15:45 1014 29.94 843 24.89 29.1 84.4 12 -2.9 26.8
15:50 1014 29.94 843 24.89 28.7 83.7 11 -3.9 25
15:55 1014 29.94 843 24.89 28.8 83.8 12 -3.6 25.4
16:00 1014 29.94 843 24.89 29 84.2 12 -3.1 26.4
16:05 1014 29.94 843 24.89 28.9 84 11 -3.8 25.2
16:10 1014 29.94 843 24.89 28.5 83.3 12 -3.4 25.9
16:15 1014 29.94 843 24.89 29.1 84.3 12 -3.1 26.5
16:20 1014 29.94 843 24.89 28.7 83.7 12 -3.7 25.4
16:25 1014 29.94 843 24.89 28.6 83.4 12 -3.7 25.4
16:30 1014 29.94 843 24.89 28.8 83.9 11 -3.7 25.3
16:35 1013 29.91 843 24.89 28 82.3 12 -4 24.8
16:40 1013 29.91 843 24.89 27.9 82.3 12 -3.5 25.7
16:45 1013 29.91 843 24.89 27.9 82.2 12 -3.6 25.4
16:50 1013 29.91 843 24.89 27.5 81.5 12 -4 24.8
16:55 1013 29.91 842 24.86 27.3 81.2 13 -3.2 26.2
17:00 1013 29.91 842 24.86 27.5 81.4 14 -2.6 27.4
17:05 1013 29.91 842 24.86 27.5 81.4 13 -3.1 26.5
17:10 1013 29.91 842 24.86 27.2 80.9 13 -3.1 26.4
17:15 1013 29.91 842 24.86 27.3 81.2 13 -3.1 26.5
17:20 1013 29.91 842 24.86 27.6 81.7 13 -3.3 26
17:25 1013 29.91 842 24.86 27.4 81.3 12 -4.2 24.5
17:30 1013 29.91 842 24.86 27 80.5 13 -3.4 25.9
17:35 1013 29.91 842 24.86 26.9 80.5 14 -2.9 26.7
17:40 1013 29.91 842 24.86 26.8 80.2 14 -2.7 27.2
17:45 1013 29.91 842 24.86 26.6 79.9 14 -2.9 26.9
17:50 1013 29.91 842 24.86 26.5 79.6 14 -3.4 25.9
17:55 1013 29.91 842 24.86 26.4 79.4 13 -3.6 25.6
18:00 1013 29.91 842 24.86 26.2 79.1 14 -3.2 26.2
18:05 1013 29.91 842 24.86 26 78.9 14 -3.1 26.4
18:10 1013 29.91 842 24.86 26 78.8 14 -3.5 25.6
18:15 1013 29.91 842 24.86 26 78.7 14 -2.9 26.7
18:20 1013 29.91 842 24.86 25.8 78.4 15 -2.7 27.1
18:25 1013 29.91 842 24.86 25.6 78.1 19 0.6 33.1
18:30 1013 29.91 842 24.86 24.8 76.6 21 1.1 34.1
18:35 1013 29.91 842 24.86 24.3 75.8 23 1.9 35.4
18:40 1013 29.91 842 24.86 23.7 74.6 24 2.1 35.7
18:45 1013 29.91 842 24.86 23.6 74.5 26 3 37.4
18:50 1013 29.91 842 24.86 22.7 72.9 28 3.3 37.9
18:55 1013 29.91 842 24.86 22.8 73 23 1 33.8
19:00 1013 29.91 842 24.86 22.4 72.4 26 2.1 35.7
19:05 1013 29.91 842 24.86 21.4 70.5 25 0.9 33.5
19:10 1013 29.91 842 24.86 21.1 70 27 1.8 35.3
19:15 1013 29.91 842 24.86 20.7 69.2 27 1.1 34
19:20 1013 29.91 842 24.86 20.5 68.8 26 0.7 33.3
19:25 1013 29.91 842 24.86 20.3 68.6 27 1.1 34.1
19:30 1013 29.91 842 24.86 20 67.9 31 2.4 36.4
19:35 1013 29.91 843 24.89 18.8 65.9 33 2.2 35.9
19:40 1013 29.91 843 24.89 19 66.2 29 0.7 33.3
19:45 1013 29.91 843 24.89 19.1 66.3 28 0.4 32.7
19:50 1013 29.91 843 24.89 19.3 66.7 26 -0.7 30.7
19:55 1013 29.91 843 24.89 19.6 67.3 26 -0.5 31.2
20:00 1013 29.91 843 24.89 19.8 67.7 25 -0.4 31.2
20:05 1013 29.91 843 24.89 19.9 67.8 26 -0.3 31.5
20:10 1013 29.91 843 24.89 20 67.9 24 -1 30.1
20:15 1014 29.94 843 24.89 20.2 68.4 24 -0.8 30.6
20:20 1013 29.91 843 24.89 20.3 68.5 24 -1 30.2
20:25 1013 29.91 843 24.89 20.4 68.6 23 -1 30.2
20:30 1013 29.91 843 24.89 20.4 68.7 23 -1.2 29.8
20:35 1013 29.91 843 24.89 20.4 68.7 24 -0.8 30.5
20:40 1013 29.91 843 24.89 20.3 68.5 23 -1.3 29.6
20:45 1013 29.91 843 24.89 20.6 69.1 22 -1.6 29.2
20:50 1013 29.91 843 24.89 20.7 69.3 22 -1.8 28.8
20:55 1013 29.91 843 24.89 20.7 69.3 22 -1.7 28.9
21:00 1013 29.91 843 24.89 20.8 69.5 21 -2.1 28.2
21:05 1013 29.91 842 24.86 21 69.7 20 -2.4 27.7
21:10 1013 29.91 842 24.86 21.1 69.9 21 -2.2 28
21:15 1013 29.91 842 24.86 21.2 70.1 19 -3.2 26.3
21:20 1013 29.91 842 24.86 21.4 70.6 19 -2.7 27.2
21:25 1013 29.91 842 24.86 21.8 71.2 19 -2.8 27
21:30 1013 29.91 842 24.86 21.7 71 20 -2.1 28.2
21:35 1013 29.91 842 24.86 21.2 70.2 19 -3 26.7
21:40 1013 29.91 842 24.86 21.4 70.5 24 0.3 32.5
21:45 1013 29.91 842 24.86 20.8 69.4 22 -1.6 29.2
21:50 1013 29.91 842 24.86 20.6 69.2 23 -1.2 29.8
21:55 1013 29.91 842 24.86 20.4 68.8 20 -3 26.5
22:00 1013 29.91 842 24.86 21 69.7 21 -2 28.4
22:05 1013 29.91 842 24.86 20.7 69.3 21 -2.4 27.7
22:10 1013 29.91 842 24.86 20.4 68.8 21 -2.5 27.5
22:15 1013 29.91 842 24.86 20.8 69.5 20 -3 26.7
22:20 1013 29.91 842 24.86 21.5 70.6 19 -2.7 27.2
22:25 1013 29.91 842 24.86 21.3 70.4 19 -3.2 26.3
22:30 1013 29.91 842 24.86 21.5 70.7 19 -2.6 27.4
22:35 1013 29.91 842 24.86 21.5 70.7 18 -3.6 25.5
22:40 1013 29.91 842 24.86 22.2 72 17 -3.6 25.6
22:45 1013 29.91 842 24.86 22.2 72 18 -3.3 26
22:50 1013 29.91 842 24.86 22.2 72 17 -3.5 25.6
22:55 1013 29.91 842 24.86 22.5 72.6 17 -3.4 25.8
23:00 1013 29.91 842 24.86 22.5 72.6 17 -3.3 26
23:05 1013 29.91 842 24.86 22.4 72.3 18 -3.2 26.2
23:10 1013 29.91 842 24.86 22.4 72.4 18 -2.8 26.9
23:15 1013 29.91 842 24.86 22.4 72.4 17 -3.3 26.1
23:20 1013 29.91 842 24.86 22.2 72 18 -2.9 26.8
23:25 1013 29.91 842 24.86 21.8 71.3 19 -2.4 27.7
23:30 1013 29.91 842 24.86 21.7 71 19 -2.5 27.4
23:35 1013 29.91 842 24.86 21.3 70.3 19 -3.1 26.4
23:40 1013 29.91 842 24.86 21.6 70.8 19 -3.2 26.3
23:45 1013 29.91 842 24.86 21.3 70.3 20 -2.4 27.6
23:50 1013 29.91 842 24.86 20.8 69.5 20 -2.9 26.9
23:55 1013 29.91 842 24.86 21.1 69.9 19 -3.1 26.4
24:00 1013 29.91 842 24.86 21 69.7 21 -1.9 28.6